createdAt,value
2023-02-14T00:02:08.812Z,6.03
2023-02-14T00:04:38.225Z,6.35
2023-02-14T00:07:06.868Z,6.28
2023-02-14T00:09:33.447Z,5.95
2023-02-14T00:11:59.978Z,5.82
2023-02-14T00:14:47.428Z,5.63
2023-02-14T00:17:16.522Z,6.05
2023-02-14T00:19:44.325Z,6.18
2023-02-14T00:22:10.905Z,6.00
2023-02-14T00:24:39.677Z,5.80
2023-02-14T00:27:06.245Z,6.13
2023-02-14T00:29:33.457Z,6.68
2023-02-14T00:32:01.855Z,6.65
2023-02-14T00:34:33.196Z,6.93
2023-02-14T00:37:00.305Z,6.83
2023-02-14T00:39:26.961Z,6.47
2023-02-14T00:41:53.606Z,6.68
2023-02-14T00:44:21.569Z,5.80
2023-02-14T00:46:50.515Z,6.53
2023-02-14T00:49:17.563Z,6.22
2023-02-14T00:51:44.145Z,6.18
2023-02-14T00:54:13.605Z,6.30
2023-02-14T00:56:40.172Z,6.03
2023-02-14T00:59:10.585Z,6.25
2023-02-14T01:01:40.069Z,6.75
2023-02-14T01:04:07.698Z,6.20
2023-02-14T01:06:34.326Z,6.45
2023-02-14T01:09:05.773Z,5.75
2023-02-14T01:11:33.022Z,6.32
2023-02-14T01:14:00.057Z,5.85
2023-02-14T01:16:27.797Z,6.00
2023-02-14T01:18:59.879Z,6.25
2023-02-14T01:21:30.479Z,4.53
2023-02-14T01:24:02.911Z,6.05
2023-02-14T01:26:32.331Z,5.68
2023-02-14T01:29:01.434Z,6.13
2023-02-14T01:31:33.244Z,5.93
2023-02-14T01:34:00.502Z,6.18
2023-02-14T01:36:40.658Z,5.47
2023-02-14T01:39:14.572Z,5.95
2023-02-14T01:41:43.901Z,6.32
2023-02-14T01:44:19.264Z,6.00
2023-02-14T01:46:46.153Z,6.15
2023-02-14T01:49:18.986Z,6.35
2023-02-14T01:51:53.081Z,6.43
2023-02-14T01:54:23.878Z,5.88
2023-02-14T01:56:58.340Z,5.25
2023-02-14T01:59:30.350Z,5.47
2023-02-14T02:01:57.245Z,5.72
2023-02-14T02:04:28.930Z,5.57
2023-02-14T02:06:59.851Z,6.25
2023-02-14T02:09:38.424Z,6.03
2023-02-14T02:12:05.304Z,6.68
2023-02-14T02:14:32.567Z,6.05
2023-02-14T02:17:04.811Z,5.75
2023-02-14T02:22:22.926Z,5.63
2023-02-14T02:25:34.329Z,6.68
2023-02-14T02:28:04.095Z,6.47
2023-02-14T02:33:45.846Z,5.00
2023-02-14T02:36:42.264Z,6.70
2023-02-14T02:39:30.861Z,5.18
2023-02-14T02:42:35.144Z,5.93
2023-02-14T02:45:21.786Z,6.00
2023-02-14T02:48:06.262Z,5.68
2023-02-14T02:51:02.088Z,5.80
2023-02-14T02:53:47.695Z,5.28
2023-02-14T02:56:46.702Z,5.43
2023-02-14T02:59:24.701Z,5.68
2023-02-14T03:02:21.450Z,6.65
2023-02-14T03:04:54.184Z,5.82
2023-02-14T03:07:40.340Z,5.60
2023-02-14T03:10:16.692Z,5.03
2023-02-14T03:13:04.800Z,5.80
2023-02-14T03:15:52.902Z,6.38
2023-02-14T03:19:12.084Z,5.40
2023-02-14T03:21:49.983Z,5.43
2023-02-14T03:24:25.454Z,6.10
2023-02-14T03:27:06.705Z,5.20
2023-02-14T03:30:02.920Z,4.22
2023-02-14T03:32:48.441Z,5.28
2023-02-14T03:35:18.549Z,5.18
2023-02-14T03:38:00.617Z,5.75
2023-02-14T03:40:34.327Z,5.55
2023-02-14T03:43:08.336Z,6.57
2023-02-14T03:46:01.601Z,5.25
2023-02-14T03:48:32.948Z,5.88
2023-02-14T03:51:01.319Z,5.67
2023-02-14T03:53:32.237Z,5.40
2023-02-14T03:56:10.185Z,6.00
2023-02-14T03:58:39.281Z,5.28
2023-02-14T04:01:23.264Z,5.40
2023-02-14T04:03:55.685Z,5.07
2023-02-14T04:06:22.647Z,6.10
2023-02-14T04:08:49.313Z,6.38
2023-02-14T04:11:15.888Z,5.88
2023-02-14T04:13:42.477Z,5.78
2023-02-14T04:16:14.720Z,5.05
2023-02-14T04:18:59.949Z,5.53
2023-02-14T04:21:27.737Z,6.03
2023-02-14T04:23:56.891Z,5.43
2023-02-14T04:26:23.509Z,5.75
2023-02-14T04:28:51.339Z,5.80
2023-02-14T04:31:20.461Z,5.10
2023-02-14T04:33:47.998Z,6.35
2023-02-14T04:36:15.045Z,5.72
2023-02-14T04:38:41.659Z,5.47
2023-02-14T04:41:08.269Z,5.50
2023-02-14T04:43:37.015Z,6.00
2023-02-14T04:46:05.765Z,6.07
2023-02-14T04:48:32.325Z,6.05
2023-02-14T04:51:01.713Z,5.75
2023-02-14T04:53:28.874Z,5.57
2023-02-14T04:55:57.863Z,5.13
2023-02-14T04:58:24.457Z,5.82
2023-02-14T05:00:51.334Z,5.53
2023-02-14T05:03:20.029Z,5.40
2023-02-14T05:05:46.585Z,5.88
2023-02-14T05:08:14.258Z,5.53
2023-02-14T05:10:41.173Z,5.75
2023-02-14T05:13:07.991Z,5.60
2023-02-14T05:15:37.472Z,5.50
2023-02-14T05:18:05.590Z,5.15
2023-02-14T05:20:32.656Z,5.38
2023-02-14T05:23:03.169Z,5.28
2023-02-14T05:25:30.608Z,5.28
2023-02-14T05:28:00.044Z,5.30
2023-02-14T05:30:27.889Z,5.63
2023-02-14T05:32:54.620Z,5.25
2023-02-14T05:35:23.098Z,6.20
2023-02-14T05:37:49.818Z,5.22
2023-02-14T05:40:16.823Z,5.47
2023-02-14T05:42:43.780Z,5.43
2023-02-14T05:45:13.229Z,5.63
2023-02-14T05:47:40.009Z,5.70
2023-02-14T05:50:10.620Z,6.55
2023-02-14T05:52:37.995Z,6.22
2023-02-14T05:55:05.478Z,5.75
2023-02-14T05:57:32.326Z,5.90
2023-02-14T05:59:58.962Z,5.80
2023-02-14T06:02:25.573Z,6.13
2023-02-14T06:04:52.400Z,5.75
2023-02-14T06:07:19.271Z,6.30
2023-02-14T06:09:45.855Z,6.22
2023-02-14T06:12:12.505Z,6.80
2023-02-14T06:14:41.230Z,5.63
2023-02-14T06:17:07.774Z,6.28
2023-02-14T06:19:34.385Z,6.57
2023-02-14T06:22:00.940Z,5.45
2023-02-14T06:24:27.598Z,7.25
2023-02-14T06:26:54.185Z,6.55
2023-02-14T06:29:20.764Z,6.72
2023-02-14T06:31:47.533Z,6.25
2023-02-14T06:34:17.387Z,6.18
2023-02-14T06:36:44.682Z,5.35
2023-02-14T06:39:11.289Z,6.13
2023-02-14T06:41:37.901Z,6.15
2023-02-14T06:44:04.713Z,6.32
2023-02-14T06:46:31.329Z,5.70
2023-02-14T06:48:57.906Z,7.53
2023-02-14T06:51:24.529Z,7.00
2023-02-14T06:53:51.323Z,7.82
2023-02-14T06:56:17.870Z,7.72
2023-02-14T06:58:44.457Z,8.50
2023-02-14T07:01:11.109Z,8.50
2023-02-14T07:03:39.668Z,8.48
2023-02-14T07:06:06.319Z,8.88
2023-02-14T07:08:32.871Z,8.82
2023-02-14T07:10:59.890Z,9.40
2023-02-14T07:13:26.603Z,9.07
2023-02-14T07:15:53.238Z,9.60
2023-02-14T07:18:19.813Z,9.80
2023-02-14T07:20:46.462Z,10.73
2023-02-14T07:23:13.018Z,11.60
2023-02-14T07:25:41.999Z,11.43
2023-02-14T07:28:08.667Z,11.18
2023-02-14T07:30:35.265Z,12.38
2023-02-14T07:33:01.878Z,12.10
2023-02-14T07:35:28.484Z,13.07
2023-02-14T07:37:55.176Z,13.70
2023-02-14T07:40:21.779Z,14.50
2023-02-14T07:42:55.136Z,11.13
2023-02-14T07:45:23.344Z,11.40
2023-02-14T07:47:52.619Z,11.45
2023-02-14T07:50:20.689Z,12.02
2023-02-14T07:52:47.698Z,11.38
2023-02-14T07:55:14.336Z,10.52
2023-02-14T07:57:40.896Z,11.13
2023-02-14T08:00:08.169Z,10.35
2023-02-14T08:02:38.583Z,10.75
2023-02-14T08:05:05.649Z,12.40
2023-02-14T08:07:32.268Z,11.68
2023-02-14T08:09:58.853Z,11.52
2023-02-14T08:12:44.026Z,10.93
2023-02-14T08:15:29.557Z,12.25
2023-02-14T08:17:56.996Z,10.63
2023-02-14T08:20:23.538Z,11.50
2023-02-14T08:22:50.087Z,11.55
2023-02-14T08:25:16.665Z,13.98
2023-02-14T08:27:43.219Z,15.23
2023-02-14T08:30:10.138Z,14.15
2023-02-14T08:32:36.915Z,13.48
2023-02-14T08:35:03.542Z,13.65
2023-02-14T08:37:30.093Z,13.13
2023-02-14T08:39:56.713Z,13.40
2023-02-14T08:42:23.330Z,12.57
2023-02-14T08:44:49.911Z,12.55
2023-02-14T08:47:16.482Z,12.70
2023-02-14T08:49:43.328Z,12.48
2023-02-14T08:52:09.898Z,13.02
2023-02-14T08:54:38.647Z,15.57
2023-02-14T08:57:05.455Z,14.23
2023-02-14T08:59:32.080Z,15.43
2023-02-14T09:01:58.880Z,15.27
2023-02-14T09:04:25.561Z,14.60
2023-02-14T09:06:52.273Z,16.50
2023-02-14T09:09:21.982Z,16.30
2023-02-14T09:11:48.565Z,18.50
2023-02-14T09:14:16.368Z,16.80
2023-02-14T09:16:43.072Z,17.42
2023-02-14T09:19:12.452Z,17.23
2023-02-14T09:21:40.622Z,16.75
2023-02-14T09:24:07.287Z,18.83
2023-02-14T09:26:38.697Z,16.75
2023-02-14T09:29:05.281Z,17.08
2023-02-14T09:31:32.037Z,17.92
2023-02-14T09:34:17.352Z,18.35
2023-02-14T09:36:43.960Z,18.77
2023-02-14T09:39:10.546Z,17.58
2023-02-14T09:42:06.149Z,17.52
2023-02-14T09:44:53.988Z,16.83
2023-02-14T09:47:41.624Z,15.88
2023-02-14T09:50:30.088Z,16.05
2023-02-14T09:53:06.227Z,16.10
2023-02-14T09:55:58.920Z,16.15
2023-02-14T09:58:35.589Z,16.73
2023-02-14T10:01:18.161Z,16.05
2023-02-14T10:04:26.702Z,16.95
2023-02-14T10:07:30.007Z,15.70
2023-02-14T10:10:15.029Z,16.77
2023-02-14T10:12:53.433Z,16.88
2023-02-14T10:15:32.012Z,16.27
2023-02-14T10:18:08.004Z,17.73
2023-02-14T10:20:49.403Z,17.50
2023-02-14T10:23:37.658Z,16.63
2023-02-14T10:26:05.856Z,15.65
2023-02-14T10:28:44.434Z,16.17
2023-02-14T10:31:16.423Z,16.55
2023-02-14T10:33:51.556Z,16.42
2023-02-14T10:36:33.813Z,15.57
2023-02-14T10:39:12.154Z,15.60
2023-02-14T10:41:49.786Z,16.33
2023-02-14T10:44:22.981Z,15.98
2023-02-14T10:47:17.312Z,16.52
2023-02-14T10:49:50.166Z,16.45
2023-02-14T10:52:38.617Z,15.73
2023-02-14T10:55:32.903Z,15.70
2023-02-14T10:58:03.959Z,16.45
2023-02-14T11:00:34.936Z,15.60
2023-02-14T11:03:06.443Z,16.58
2023-02-14T11:05:37.924Z,17.20
2023-02-14T11:08:44.166Z,16.38
2023-02-14T11:11:29.328Z,14.63
2023-02-14T11:13:56.111Z,15.65
2023-02-14T11:16:30.397Z,16.33
2023-02-14T11:19:20.857Z,17.05
2023-02-14T11:21:50.453Z,16.98
2023-02-14T11:24:18.630Z,16.88
2023-02-14T11:26:48.226Z,16.38
2023-02-14T11:29:18.882Z,15.82
2023-02-14T11:31:45.615Z,16.15
2023-02-14T11:34:25.114Z,16.80
2023-02-14T11:36:51.805Z,16.95
2023-02-14T11:39:31.275Z,16.75
2023-02-14T11:42:01.232Z,17.38
2023-02-14T11:44:29.650Z,16.40
2023-02-14T11:47:15.543Z,17.08
2023-02-14T11:49:58.116Z,16.38
2023-02-14T11:52:28.852Z,17.00
2023-02-14T11:54:57.302Z,17.55
2023-02-14T11:57:34.600Z,16.98
2023-02-14T12:00:05.088Z,17.27
2023-02-14T12:02:43.665Z,17.23
2023-02-14T12:05:27.569Z,18.13
2023-02-14T12:08:02.366Z,17.15
2023-02-14T12:10:37.979Z,16.33
2023-02-14T12:13:28.704Z,16.02
2023-02-14T12:15:58.216Z,16.73
2023-02-14T12:18:42.753Z,16.27
2023-02-14T12:21:27.973Z,15.93
2023-02-14T12:24:27.825Z,15.90
2023-02-14T12:27:23.743Z,15.40
2023-02-14T12:29:59.240Z,15.10
2023-02-14T12:32:31.267Z,15.43
2023-02-14T12:35:19.990Z,16.60
2023-02-14T12:38:04.342Z,16.17
2023-02-14T12:40:58.105Z,16.33
2023-02-14T12:43:43.907Z,15.52
2023-02-14T12:46:43.241Z,15.50
2023-02-14T12:49:42.728Z,15.45
2023-02-14T12:52:55.681Z,14.95
2023-02-14T12:55:28.434Z,13.38
2023-02-14T12:58:12.563Z,13.55
2023-02-14T13:00:46.956Z,15.23
2023-02-14T13:03:31.213Z,13.80
2023-02-14T13:06:18.684Z,14.38
2023-02-14T13:09:09.673Z,14.68
2023-02-14T13:11:48.650Z,13.95
2023-02-14T13:14:47.307Z,14.10
2023-02-14T13:17:48.938Z,13.35
2023-02-14T13:20:15.647Z,13.48
2023-02-14T13:22:43.643Z,13.77
2023-02-14T13:25:37.461Z,14.25
2023-02-14T13:28:07.270Z,13.13
2023-02-14T13:30:37.037Z,11.88
2023-02-14T13:33:09.511Z,12.85
2023-02-14T13:38:12.424Z,11.65
2023-02-14T13:40:40.077Z,11.55
2023-02-14T13:43:06.728Z,12.48
2023-02-14T13:45:37.465Z,11.98
2023-02-14T13:48:18.352Z,11.98
2023-02-14T13:51:08.082Z,12.27
2023-02-14T13:53:48.287Z,11.93
2023-02-14T13:56:15.275Z,12.48
2023-02-14T13:59:24.589Z,12.57
2023-02-14T14:01:51.718Z,12.90
2023-02-14T14:04:33.258Z,11.98
2023-02-14T14:07:02.826Z,12.98
2023-02-14T14:09:44.729Z,11.88
2023-02-14T14:12:27.607Z,12.68
2023-02-14T14:15:06.198Z,11.95
2023-02-14T14:17:39.273Z,11.95
2023-02-14T14:20:20.558Z,13.05
2023-02-14T14:22:58.378Z,10.57
2023-02-14T14:25:42.199Z,11.77
2023-02-14T14:28:11.356Z,11.93
2023-02-14T14:30:44.424Z,11.15
2023-02-14T14:33:22.925Z,11.52
2023-02-14T14:36:11.012Z,11.30
2023-02-14T14:38:53.345Z,11.25
2023-02-14T14:41:28.691Z,10.50
2023-02-14T14:43:55.440Z,10.35
2023-02-14T14:46:22.738Z,9.82
2023-02-14T14:48:56.707Z,9.82
2023-02-14T14:51:35.366Z,10.75
2023-02-14T14:54:25.102Z,11.73
2023-02-14T14:57:03.600Z,12.02
2023-02-14T14:59:35.262Z,11.32
2023-02-14T15:02:03.743Z,11.80
2023-02-14T15:04:34.011Z,11.70
2023-02-14T15:07:21.256Z,12.35
2023-02-14T15:09:47.906Z,11.35
2023-02-14T15:12:38.929Z,12.77
2023-02-14T15:15:09.908Z,13.60
2023-02-14T15:17:38.290Z,14.98
2023-02-14T15:20:25.396Z,15.63
2023-02-14T15:22:53.503Z,14.18
2023-02-14T15:25:21.699Z,13.88
2023-02-14T15:27:49.027Z,14.95
2023-02-14T15:30:28.986Z,15.70
2023-02-14T15:32:56.206Z,14.95
2023-02-14T15:35:29.329Z,14.45
2023-02-14T15:38:00.228Z,13.15
2023-02-14T15:43:14.066Z,12.90
2023-02-14T15:45:42.545Z,15.20
2023-02-14T15:48:23.650Z,13.50
2023-02-14T15:50:52.766Z,14.70
2023-02-14T15:53:19.313Z,15.27
2023-02-14T15:55:51.195Z,14.85
2023-02-14T15:58:29.598Z,15.07
2023-02-14T16:00:56.537Z,14.05
2023-02-14T16:03:28.760Z,15.02
2023-02-14T16:05:55.631Z,15.07
2023-02-14T16:08:35.329Z,13.32
2023-02-14T16:11:29.737Z,14.35
2023-02-14T16:13:56.887Z,13.57
2023-02-14T16:16:23.440Z,13.10
2023-02-14T16:18:56.713Z,13.43
2023-02-14T16:21:27.435Z,13.48
2023-02-14T16:24:11.274Z,14.75
2023-02-14T16:26:40.907Z,12.98
2023-02-14T16:29:09.852Z,13.05
2023-02-14T16:31:48.475Z,12.13
2023-02-14T16:34:23.938Z,12.13
2023-02-14T16:36:53.478Z,11.88
2023-02-14T16:39:24.674Z,12.20
2023-02-14T16:41:53.409Z,11.10
2023-02-14T16:44:20.375Z,10.70
2023-02-14T16:46:46.934Z,11.85
2023-02-14T16:49:14.453Z,11.52
2023-02-14T16:51:44.014Z,12.68
2023-02-14T16:54:20.316Z,11.90
2023-02-14T16:56:52.261Z,12.27
2023-02-14T16:59:18.918Z,11.68
2023-02-14T17:01:45.731Z,11.23
2023-02-14T17:04:12.698Z,12.05
2023-02-14T17:06:43.222Z,12.70
2023-02-14T17:09:11.983Z,12.50
2023-02-14T17:11:43.403Z,12.63
2023-02-14T17:14:14.726Z,11.77
2023-02-14T17:16:42.355Z,10.77
2023-02-14T17:19:09.422Z,12.85
2023-02-14T17:21:36.098Z,11.75
2023-02-14T17:24:03.367Z,13.23
2023-02-14T17:26:30.216Z,11.00
2023-02-14T17:28:56.811Z,11.07
2023-02-14T17:31:23.604Z,12.68
2023-02-14T17:33:50.248Z,12.18
2023-02-14T17:36:16.992Z,12.52
2023-02-14T17:38:43.691Z,12.45
2023-02-14T17:41:18.560Z,11.90
2023-02-14T17:43:45.998Z,11.00
2023-02-14T17:46:16.125Z,11.23
2023-02-14T17:48:45.399Z,10.98
2023-02-14T17:51:13.610Z,10.18
2023-02-14T17:53:41.560Z,11.60
2023-02-14T17:56:22.406Z,10.63
2023-02-14T17:58:57.008Z,9.98
2023-02-14T18:01:26.430Z,10.68
2023-02-14T18:03:54.327Z,12.02
2023-02-14T18:06:25.821Z,11.32
2023-02-14T18:08:57.384Z,11.27
2023-02-14T18:11:26.866Z,11.18
2023-02-14T18:13:57.163Z,11.05
2023-02-14T18:16:26.543Z,10.25
2023-02-14T18:18:58.088Z,10.45
2023-02-14T18:21:28.014Z,9.50
2023-02-14T18:23:55.267Z,10.23
2023-02-14T18:26:21.862Z,10.35
2023-02-14T18:28:50.776Z,10.20
2023-02-14T18:31:18.382Z,9.80
2023-02-14T18:33:46.684Z,9.13
2023-02-14T18:36:17.025Z,9.95
2023-02-14T18:38:47.329Z,10.55
2023-02-14T18:41:17.302Z,9.95
2023-02-14T18:43:44.915Z,11.00
2023-02-14T18:46:30.810Z,10.20
2023-02-14T18:49:00.083Z,8.77
2023-02-14T18:51:34.008Z,9.43
2023-02-14T18:54:04.453Z,8.60
2023-02-14T18:56:36.901Z,10.02
2023-02-14T18:59:10.809Z,9.27
2023-02-14T19:01:42.708Z,10.13
2023-02-14T19:04:12.718Z,10.88
2023-02-14T19:06:41.799Z,11.52
2023-02-14T19:09:12.328Z,10.25
2023-02-14T19:11:45.554Z,10.02
2023-02-14T19:14:15.042Z,10.63
2023-02-14T19:16:53.405Z,11.25
2023-02-14T19:19:20.349Z,10.57
2023-02-14T19:21:53.161Z,11.52
2023-02-14T19:24:24.748Z,10.77
2023-02-14T19:26:52.645Z,10.68
2023-02-14T19:29:23.309Z,9.57
2023-02-14T19:31:52.964Z,10.32
2023-02-14T19:34:22.471Z,9.50
2023-02-14T19:36:53.174Z,10.43
2023-02-14T19:39:20.975Z,10.07
2023-02-14T19:41:50.026Z,9.55
2023-02-14T19:44:24.813Z,9.10
2023-02-14T19:46:56.650Z,10.02
2023-02-14T19:49:29.976Z,10.70
2023-02-14T19:51:59.563Z,9.35
2023-02-14T19:54:28.457Z,9.32
2023-02-14T19:56:56.095Z,9.25
2023-02-14T19:59:24.216Z,8.68
2023-02-14T20:01:54.314Z,10.10
2023-02-14T20:04:27.166Z,9.93
2023-02-14T20:06:54.736Z,9.60
2023-02-14T20:09:22.639Z,9.57
2023-02-14T20:11:54.398Z,10.00
2023-02-14T20:14:31.476Z,8.88
2023-02-14T20:17:00.884Z,10.13
2023-02-14T20:19:32.290Z,9.70
2023-02-14T20:21:59.022Z,9.73
2023-02-14T20:24:29.570Z,10.35
2023-02-14T20:27:01.401Z,9.77
2023-02-14T20:29:33.494Z,10.15
2023-02-14T20:32:03.202Z,10.30
2023-02-14T20:34:29.965Z,9.73
2023-02-14T20:36:59.490Z,10.23
2023-02-14T20:39:30.981Z,9.68
2023-02-14T20:41:59.963Z,9.25
2023-02-14T20:44:31.032Z,10.65
2023-02-14T20:47:02.928Z,9.55
2023-02-14T20:49:31.016Z,9.35
2023-02-14T20:51:58.079Z,9.88
2023-02-14T20:54:26.647Z,9.57
2023-02-14T20:56:53.817Z,8.23
2023-02-14T20:59:27.145Z,8.18
2023-02-14T21:01:57.396Z,8.13
2023-02-14T21:04:24.466Z,8.43
2023-02-14T21:06:51.270Z,8.80
2023-02-14T21:09:20.276Z,9.40
2023-02-14T21:11:51.396Z,8.60
2023-02-14T21:14:22.763Z,9.90
2023-02-14T21:16:49.447Z,10.80
2023-02-14T21:19:20.449Z,10.18
2023-02-14T21:21:49.301Z,10.75
2023-02-14T21:24:18.617Z,10.02
2023-02-14T21:26:47.865Z,10.43
2023-02-14T21:29:16.869Z,10.82
2023-02-14T21:31:43.639Z,11.45
2023-02-14T21:34:19.342Z,12.35
2023-02-14T21:36:48.364Z,11.80
2023-02-14T21:39:17.922Z,10.93
2023-02-14T21:41:47.266Z,10.35
2023-02-14T21:44:35.734Z,12.52
2023-02-14T21:47:02.748Z,11.88
2023-02-14T21:49:50.461Z,12.45
2023-02-14T21:52:20.143Z,11.68
2023-02-14T21:54:47.230Z,12.88
2023-02-14T21:57:14.287Z,12.50
2023-02-14T21:59:43.622Z,12.43
2023-02-14T22:02:17.019Z,12.88
2023-02-14T22:04:45.396Z,12.75
2023-02-14T22:07:14.546Z,14.02
2023-02-14T22:09:46.238Z,14.43
2023-02-14T22:12:15.150Z,13.63
2023-02-14T22:14:41.710Z,14.20
2023-02-14T22:17:11.152Z,14.55
2023-02-14T22:19:37.716Z,13.57
2023-02-14T22:22:04.653Z,14.75
2023-02-14T22:24:31.280Z,12.98
2023-02-14T22:26:57.887Z,13.88
2023-02-14T22:29:25.973Z,13.73
2023-02-14T22:31:52.658Z,13.65
2023-02-14T22:34:20.654Z,14.35
2023-02-14T22:36:49.689Z,13.75
2023-02-14T22:39:16.948Z,13.77
2023-02-14T22:41:44.139Z,15.00
2023-02-14T22:44:12.218Z,14.07
2023-02-14T22:46:38.924Z,13.32
2023-02-14T22:49:06.708Z,13.52
2023-02-14T22:51:43.598Z,13.48
2023-02-14T22:54:13.773Z,13.80
2023-02-14T22:56:53.852Z,12.63
2023-02-14T22:59:24.636Z,12.65
2023-02-14T23:01:52.507Z,12.73
2023-02-14T23:04:21.693Z,14.27
2023-02-14T23:06:58.441Z,15.32
2023-02-14T23:09:30.562Z,14.38
2023-02-14T23:12:02.436Z,13.27
2023-02-14T23:14:50.125Z,14.82
2023-02-14T23:17:55.700Z,14.05
2023-02-14T23:20:40.734Z,13.38
2023-02-14T23:23:09.732Z,13.27
2023-02-14T23:25:36.358Z,16.05
2023-02-14T23:28:05.277Z,13.27
2023-02-14T23:30:33.848Z,13.68
2023-02-14T23:33:00.454Z,14.35
2023-02-14T23:35:29.370Z,13.50
2023-02-14T23:37:58.237Z,14.23
2023-02-14T23:40:24.968Z,14.10
2023-02-14T23:42:54.906Z,15.30
2023-02-14T23:45:39.742Z,15.18
2023-02-14T23:48:08.209Z,13.25
2023-02-14T23:50:34.841Z,13.15
2023-02-14T23:53:01.437Z,14.32
2023-02-14T23:55:31.311Z,13.70
2023-02-14T23:57:58.707Z,15.38
